Decoded Metar for KGOV (GRAYLING AF in MI, USA) (IATA:GOV) | Meteo·Mobile Aviation Weather
aviador You're here:

KGOV Decoded Metar

GRAYLING AF in MI, USA
Report Time2019-01-21 14:58:00
UTC Time2019-01-21 15:31:49
Flight Rules vfr VFR
WindCalm
Visibility9999 m
Phenomena:N/A
Clouds:N/A
Expected CloudBase > 1,200 ft AGL from Temp-Dew spread
CeilingNone
Temp-26°C (ISA -39)
Dew Point-29°C (76% RH)
AAT-29.8°C
QNH1033 hPa
Density Alt-4,534 ft
Elevation1,158 ft
Report Wrong Elevation
Raw Report
KGOV 211458Z AUTO 00000KT 10SM CLR M26/M29 A3050 RMK AO2 SLP385
T12631292 52018 $=

Extra information for KGOV:More info

Metar Taf Metar & Taf Last 4 Metars F.Rules Stats Wind Profile Meteogram Temp Stats Airport Information Weather charts Add Link Nearby VenuesMetar ALERT Operation Metar Decoded Social comments

AIRNAV info for KGOV